Time,TemperatureF,DewpointF,PressureIn,WindDirection,WindDirectionDegrees,WindSpeedMPH,WindSpeedGustMPH,Humidity,HourlyPrecipIn,Conditions,Clouds,dailyrainin,SoftwareType,DateUTC
2016-02-07 00:04:00,24.6,21.0,30.28,WSW,256,0.0,1.0,86,0.00,,,0.00,Wunderground v.1.15,2016-02-07 05:04:00,
2016-02-07 00:15:00,24.4,20.5,30.27,WSW,252,0.0,1.0,85,0.00,,,0.00,Wunderground v.1.15,2016-02-07 05:15:00,
2016-02-07 00:21:00,24.3,20.4,30.27,West,273,0.0,0.0,85,0.00,,,0.00,Wunderground v.1.15,2016-02-07 05:21:00,
2016-02-07 00:27:00,24.1,20.5,30.26,West,260,0.0,0.0,86,0.00,,,0.00,Wunderground v.1.15,2016-02-07 05:27:00,
2016-02-07 00:33:00,23.9,20.3,30.26,WSW,252,0.0,0.0,86,0.00,,,0.00,Wunderground v.1.15,2016-02-07 05:33:00,
2016-02-07 00:38:00,23.8,20.2,30.26,West,276,1.0,1.0,86,0.00,,,0.00,Wunderground v.1.15,2016-02-07 05:38:00,
2016-02-07 00:44:00,24.0,20.4,30.26,WSW,255,0.0,1.0,86,0.00,,,0.00,Wunderground v.1.15,2016-02-07 05:44:00,
2016-02-07 00:50:00,24.0,20.4,30.26,WNW,288,0.0,0.0,86,0.00,,,0.00,Wunderground v.1.15,2016-02-07 05:50:00,
2016-02-07 00:56:00,24.0,20.4,30.26,West,273,0.0,3.0,86,0.00,,,0.00,Wunderground v.1.15,2016-02-07 05:56:00,
2016-02-07 01:01:00,24.1,20.5,30.26,WSW,246,1.0,1.0,86,0.00,,,0.00,Wunderground v.1.15,2016-02-07 06:01:00,
2016-02-07 01:07:00,24.2,20.6,30.26,West,271,1.0,3.0,86,0.00,,,0.00,Wunderground v.1.15,2016-02-07 06:07:00,
2016-02-07 01:13:00,24.3,20.7,30.25,WSW,242,0.0,5.0,86,0.00,,,0.00,Wunderground v.1.15,2016-02-07 06:13:00,
2016-02-07 01:18:00,24.2,20.6,30.25,West,273,1.0,5.0,86,0.00,,,0.00,Wunderground v.1.15,2016-02-07 06:18:00,
2016-02-07 01:24:00,24.0,20.4,30.26,West,263,1.0,1.0,86,0.00,,,0.00,Wunderground v.1.15,2016-02-07 06:24:00,
2016-02-07 01:30:00,24.0,20.4,30.25,WSW,250,1.0,5.0,86,0.00,,,0.00,Wunderground v.1.15,2016-02-07 06:30:00,
2016-02-07 01:36:00,24.1,20.5,30.25,WSW,248,0.0,2.0,86,0.00,,,0.00,Wunderground v.1.15,2016-02-07 06:36:00,
2016-02-07 01:41:00,24.0,20.4,30.25,West,276,2.0,2.0,86,0.00,,,0.00,Wunderground v.1.15,2016-02-07 06:41:00,
2016-02-07 01:46:00,24.0,20.4,30.25,WSW,249,2.0,4.0,86,0.00,,,0.00,Wunderground v.1.15,2016-02-07 06:46:00,
2016-02-07 01:52:00,24.1,20.5,30.25,WSW,255,2.0,2.0,86,0.00,,,0.00,Wunderground v.1.15,2016-02-07 06:52:00,
2016-02-07 01:58:00,24.1,20.5,30.25,WSW,252,1.0,3.0,86,0.00,,,0.00,Wunderground v.1.15,2016-02-07 06:58:00,
2016-02-07 02:03:00,24.3,20.4,30.24,WSW,256,2.0,3.0,85,0.00,,,0.00,Wunderground v.1.15,2016-02-07 07:03:00,
2016-02-07 02:08:00,24.2,20.3,30.24,WNW,295,4.0,4.0,85,0.00,,,0.00,Wunderground v.1.15,2016-02-07 07:08:00,
2016-02-07 02:13:00,24.3,20.4,30.24,SW,235,1.0,5.0,85,0.00,,,0.00,Wunderground v.1.15,2016-02-07 07:13:00,
2016-02-07 02:18:00,24.5,20.6,30.24,WSW,256,3.0,7.0,85,0.00,,,0.00,Wunderground v.1.15,2016-02-07 07:18:00,
2016-02-07 02:23:00,24.7,20.8,30.24,West,274,2.0,6.0,85,0.00,,,0.00,Wunderground v.1.15,2016-02-07 07:23:00,
2016-02-07 02:28:00,24.7,20.6,30.24,West,278,1.0,6.0,84,0.00,,,0.00,Wunderground v.1.15,2016-02-07 07:28:00,
2016-02-07 02:33:00,24.8,20.7,30.24,West,269,1.0,4.0,84,0.00,,,0.00,Wunderground v.1.15,2016-02-07 07:33:00,
2016-02-07 02:38:00,24.8,20.7,30.23,WSW,255,1.0,9.0,84,0.00,,,0.00,Wunderground v.1.15,2016-02-07 07:38:00,
2016-02-07 02:43:00,24.7,20.6,30.23,West,280,2.0,2.0,84,0.00,,,0.00,Wunderground v.1.15,2016-02-07 07:43:00,
2016-02-07 02:48:00,24.6,20.5,30.23,West,277,2.0,4.0,84,0.00,,,0.00,Wunderground v.1.15,2016-02-07 07:48:00,
2016-02-07 02:53:00,24.5,20.4,30.23,West,277,2.0,3.0,84,0.00,,,0.00,Wunderground v.1.15,2016-02-07 07:53:00,
2016-02-07 03:03:00,24.3,20.4,30.23,WSW,249,1.0,4.0,85,0.00,,,0.00,Wunderground v.1.15,2016-02-07 08:03:00,
2016-02-07 03:08:00,24.2,20.3,30.23,West,267,1.0,4.0,85,0.00,,,0.00,Wunderground v.1.15,2016-02-07 08:08:00,
2016-02-07 03:13:00,23.9,20.0,30.23,West,269,1.0,1.0,85,0.00,,,0.00,Wunderground v.1.15,2016-02-07 08:13:00,
2016-02-07 03:18:00,23.7,19.9,30.23,West,266,1.0,1.0,85,0.00,,,0.00,Wunderground v.1.15,2016-02-07 08:18:00,
2016-02-07 03:23:00,23.6,20.0,30.23,West,269,1.0,3.0,86,0.00,,,0.00,Wunderground v.1.15,2016-02-07 08:23:00,
2016-02-07 03:28:00,23.5,19.9,30.23,West,259,1.0,3.0,86,0.00,,,0.00,Wunderground v.1.15,2016-02-07 08:28:00,
2016-02-07 03:33:00,23.5,19.9,30.24,West,263,1.0,2.0,86,0.00,,,0.00,Wunderground v.1.15,2016-02-07 08:33:00,
2016-02-07 03:38:00,23.5,19.9,30.23,WSW,255,0.0,2.0,86,0.00,,,0.00,Wunderground v.1.15,2016-02-07 08:38:00,
2016-02-07 03:43:00,23.4,19.8,30.23,WSW,256,1.0,2.0,86,0.00,,,0.00,Wunderground v.1.15,2016-02-07 08:43:00,
2016-02-07 03:48:00,23.3,19.7,30.23,WSW,255,0.0,2.0,86,0.00,,,0.00,Wunderground v.1.15,2016-02-07 08:48:00,
2016-02-07 03:53:00,23.2,19.6,30.23,West,265,1.0,3.0,86,0.00,,,0.00,Wunderground v.1.15,2016-02-07 08:53:00,
2016-02-07 03:58:00,23.2,19.6,30.24,West,262,1.0,4.0,86,0.00,,,0.00,Wunderground v.1.15,2016-02-07 08:58:00,
2016-02-07 04:03:00,23.1,19.5,30.24,WSW,256,1.0,1.0,86,0.00,,,0.00,Wunderground v.1.15,2016-02-07 09:03:00,
2016-02-07 04:08:00,23.1,19.5,30.24,West,264,1.0,2.0,86,0.00,,,0.00,Wunderground v.1.15,2016-02-07 09:08:00,
2016-02-07 04:13:00,23.1,19.5,30.24,WSW,258,0.0,2.0,86,0.00,,,0.00,Wunderground v.1.15,2016-02-07 09:13:00,
2016-02-07 04:23:00,23.1,19.5,30.24,WSW,254,0.0,2.0,86,0.00,,,0.00,Wunderground v.1.15,2016-02-07 09:23:00,
2016-02-07 04:28:00,23.2,19.6,30.23,WNW,298,2.0,2.0,86,0.00,,,0.00,Wunderground v.1.15,2016-02-07 09:28:00,
2016-02-07 04:33:00,23.3,19.7,30.23,WSW,252,0.0,2.0,86,0.00,,,0.00,Wunderground v.1.15,2016-02-07 09:33:00,
2016-02-07 04:38:00,23.3,19.7,30.23,West,264,1.0,2.0,86,0.00,,,0.00,Wunderground v.1.15,2016-02-07 09:38:00,
2016-02-07 04:43:00,23.4,19.8,30.23,West,269,0.0,2.0,86,0.00,,,0.00,Wunderground v.1.15,2016-02-07 09:43:00,
2016-02-07 04:48:00,23.4,19.8,30.23,WSW,253,2.0,2.0,86,0.00,,,0.00,Wunderground v.1.15,2016-02-07 09:48:00,
2016-02-07 04:53:00,23.4,19.8,30.23,WSW,252,0.0,3.0,86,0.00,,,0.00,Wunderground v.1.15,2016-02-07 09:53:00,
2016-02-07 04:58:00,23.3,19.7,30.23,WSW,257,1.0,3.0,86,0.00,,,0.00,Wunderground v.1.15,2016-02-07 09:58:00,
2016-02-07 05:03:00,23.2,19.6,30.23,WSW,243,2.0,3.0,86,0.00,,,0.00,Wunderground v.1.15,2016-02-07 10:03:00,
2016-02-07 05:08:00,23.2,19.6,30.23,WSW,246,0.0,3.0,86,0.00,,,0.00,Wunderground v.1.15,2016-02-07 10:08:00,
2016-02-07 05:13:00,23.2,19.6,30.23,West,260,0.0,1.0,86,0.00,,,0.00,Wunderground v.1.15,2016-02-07 10:13:00,
2016-02-07 05:18:00,23.2,19.6,30.23,West,260,0.0,1.0,86,0.00,,,0.00,Wunderground v.1.15,2016-02-07 10:18:00,
2016-02-07 05:23:00,22.9,19.3,30.23,West,259,1.0,1.0,86,0.00,,,0.00,Wunderground v.1.15,2016-02-07 10:23:00,
2016-02-07 05:28:00,22.5,18.9,30.23,West,259,0.0,1.0,86,0.00,,,0.00,Wunderground v.1.15,2016-02-07 10:28:00,
2016-02-07 05:33:00,22.2,18.9,30.23,WSW,258,0.0,1.0,87,0.00,,,0.00,Wunderground v.1.15,2016-02-07 10:33:00,
2016-02-07 05:43:00,21.9,18.9,30.24,ESE,106,0.0,2.0,88,0.00,,,0.00,Wunderground v.1.15,2016-02-07 10:43:00,
2016-02-07 05:48:00,21.7,18.7,30.24,ESE,105,1.0,2.0,88,0.00,,,0.00,Wunderground v.1.15,2016-02-07 10:48:00,
2016-02-07 05:53:00,21.8,18.8,30.24,ESE,103,1.0,1.0,88,0.00,,,0.00,Wunderground v.1.15,2016-02-07 10:53:00,
2016-02-07 05:58:00,22.0,19.0,30.24,SSE,156,0.0,1.0,88,0.00,,,0.00,Wunderground v.1.15,2016-02-07 10:58:00,
2016-02-07 06:03:00,21.9,18.9,30.24,SSE,156,0.0,0.0,88,0.00,,,0.00,Wunderground v.1.15,2016-02-07 11:03:00,
2016-02-07 06:08:00,21.8,18.8,30.24,SSE,156,0.0,0.0,88,0.00,,,0.00,Wunderground v.1.15,2016-02-07 11:08:00,
2016-02-07 06:13:00,21.7,18.7,30.24,SW,233,1.0,1.0,88,0.00,,,0.00,Wunderground v.1.15,2016-02-07 11:13:00,
2016-02-07 06:18:00,21.7,18.7,30.24,West,280,0.0,2.0,88,0.00,,,0.00,Wunderground v.1.15,2016-02-07 11:18:00,
2016-02-07 06:23:00,21.8,18.8,30.24,West,280,0.0,1.0,88,0.00,,,0.00,Wunderground v.1.15,2016-02-07 11:23:00,
2016-02-07 06:28:00,21.7,18.7,30.24,West,280,0.0,1.0,88,0.00,,,0.00,Wunderground v.1.15,2016-02-07 11:28:00,
2016-02-07 06:33:00,21.6,18.6,30.24,West,276,0.0,1.0,88,0.00,,,0.00,Wunderground v.1.15,2016-02-07 11:33:00,
2016-02-07 06:38:00,21.4,18.4,30.24,West,276,0.0,1.0,88,0.00,,,0.00,Wunderground v.1.15,2016-02-07 11:38:00,
2016-02-07 06:43:00,21.1,18.1,30.24,West,276,0.0,0.0,88,0.00,,,0.00,Wunderground v.1.15,2016-02-07 11:43:00,
2016-02-07 06:48:00,20.9,17.9,30.24,West,276,0.0,0.0,88,0.00,,,0.00,Wunderground v.1.15,2016-02-07 11:48:00,
2016-02-07 06:53:00,20.8,18.1,30.24,West,274,0.0,1.0,89,0.00,,,0.00,Wunderground v.1.15,2016-02-07 11:53:00,
2016-02-07 06:58:00,20.9,18.2,30.24,West,274,0.0,1.0,89,0.00,,,0.00,Wunderground v.1.15,2016-02-07 11:58:00,
2016-02-07 07:03:00,21.1,18.4,30.24,West,274,0.0,1.0,89,0.00,,,0.00,Wunderground v.1.15,2016-02-07 12:03:00,
2016-02-07 07:08:00,21.2,18.5,30.24,WSW,255,1.0,1.0,89,0.00,,,0.00,Wunderground v.1.15,2016-02-07 12:08:00,
2016-02-07 07:13:00,21.0,18.3,30.24,SW,236,0.0,1.0,89,0.00,,,0.00,Wunderground v.1.15,2016-02-07 12:13:00,
2016-02-07 07:18:00,20.9,18.2,30.24,SW,236,1.0,1.0,89,0.00,,,0.00,Wunderground v.1.15,2016-02-07 12:18:00,
2016-02-07 07:23:00,20.6,17.9,30.24,SW,236,0.0,1.0,89,0.00,,,0.00,Wunderground v.1.15,2016-02-07 12:23:00,
2016-02-07 07:28:00,20.4,17.7,30.24,SW,236,0.0,1.0,89,0.00,,,0.00,Wunderground v.1.15,2016-02-07 12:28:00,
2016-02-07 07:33:00,20.4,17.7,30.24,SW,236,0.0,1.0,89,0.00,,,0.00,Wunderground v.1.15,2016-02-07 12:33:00,
2016-02-07 07:38:00,20.7,18.2,30.25,WSW,237,0.0,1.0,90,0.00,,,0.00,Wunderground v.1.15,2016-02-07 12:38:00,
2016-02-07 07:43:00,21.2,18.7,30.25,SW,236,1.0,1.0,90,0.00,,,0.00,Wunderground v.1.15,2016-02-07 12:43:00,
2016-02-07 07:48:00,21.6,19.1,30.24,WSW,246,1.0,1.0,90,0.00,,,0.00,Wunderground v.1.15,2016-02-07 12:48:00,
2016-02-07 07:53:00,22.0,19.3,30.24,WSW,240,1.0,2.0,89,0.00,,,0.00,Wunderground v.1.15,2016-02-07 12:53:00,
2016-02-07 07:58:00,22.3,19.6,30.24,WSW,240,0.0,2.0,89,0.00,,,0.00,Wunderground v.1.15,2016-02-07 12:58:00,
2016-02-07 08:03:00,22.6,19.6,30.25,SW,233,0.0,1.0,88,0.00,,,0.00,Wunderground v.1.15,2016-02-07 13:03:00,
2016-02-07 08:08:00,22.8,19.8,30.25,SW,233,0.0,1.0,88,0.00,,,0.00,Wunderground v.1.15,2016-02-07 13:08:00,
2016-02-07 08:13:00,23.0,20.0,30.24,SW,233,0.0,1.0,88,0.00,,,0.00,Wunderground v.1.15,2016-02-07 13:13:00,